Winston, Montana
Current Conditions -  °F | °C
As of 11:53 AM on Friday 24 Oct 2014 (Local Time) from KHLN Reporting Station
Broken Clouds Broken Clouds  
Wind Chill: 52°   Ceiling: 7000
Heat Index: 52°   Visibility: 10mi
Dew Point: 38°   Wind: 9mph
Humidity: 59%   Direction: 310°NW
Pressure: 30.11"   Gusts: NA
Location:  46.47°N, 111.68°W
Report Text: KHLN 241753Z 31008KT 10SM BKN070 11/03 A3011 RMK AO2 SLP207 T01110033 10111 20072 50009
Loading
Personal Weather Stations






























Interactive Weather Map
Tropical Storm Tracking
New forecast layout! Learn more

10-Day Weather Forecast

Advertisements
Track Severe Weather on mobile